createdAt,value
2023-03-13T00:00:58.210Z,6.47
2023-03-13T00:01:58.243Z,6.35
2023-03-13T00:02:58.178Z,6.37
2023-03-13T00:03:58.176Z,6.38
2023-03-13T00:04:58.221Z,6.43
2023-03-13T00:05:58.162Z,6.34
2023-03-13T00:06:58.158Z,6.38
2023-03-13T00:07:58.153Z,6.46
2023-03-13T00:08:58.121Z,6.37
2023-03-13T00:09:58.111Z,6.35
2023-03-13T00:10:58.108Z,6.37
2023-03-13T00:11:58.105Z,6.38
2023-03-13T00:12:58.067Z,6.46
2023-03-13T00:13:58.062Z,6.40
2023-03-13T00:14:58.044Z,6.43
2023-03-13T00:15:58.061Z,6.43
2023-03-13T00:16:58.046Z,6.37
2023-03-13T00:17:58.039Z,6.40
2023-03-13T00:18:58.001Z,6.40
2023-03-13T00:19:57.996Z,6.35
2023-03-13T00:20:58.004Z,6.38
2023-03-13T00:21:58.000Z,6.40
2023-03-13T00:22:57.964Z,6.46
2023-03-13T00:23:57.978Z,6.43
2023-03-13T00:24:57.935Z,6.46
2023-03-13T00:25:57.932Z,6.40
2023-03-13T00:26:57.926Z,6.45
2023-03-13T00:27:57.906Z,6.45
2023-03-13T00:28:57.891Z,6.43
2023-03-13T00:29:57.884Z,6.49
2023-03-13T00:30:57.995Z,6.42
2023-03-13T00:31:57.980Z,6.43
2023-03-13T00:32:57.869Z,6.45
2023-03-13T00:33:57.838Z,6.46
2023-03-13T00:34:57.830Z,6.45
2023-03-13T00:35:57.853Z,6.47
2023-03-13T00:36:57.822Z,6.49
2023-03-13T00:37:57.812Z,6.43
2023-03-13T00:38:57.788Z,6.45
2023-03-13T00:39:57.790Z,6.46
2023-03-13T00:40:57.759Z,6.49
2023-03-13T00:41:57.775Z,6.49
2023-03-13T00:42:57.765Z,6.42
2023-03-13T00:43:57.747Z,6.43
2023-03-13T00:44:57.723Z,6.49
2023-03-13T00:45:57.749Z,6.42
2023-03-13T00:46:57.688Z,6.52
2023-03-13T00:47:57.705Z,6.49
2023-03-13T00:48:57.680Z,6.50
2023-03-13T00:49:57.657Z,6.52
2023-03-13T00:50:57.649Z,6.50
2023-03-13T00:51:57.638Z,6.42
2023-03-13T00:52:57.645Z,6.49
2023-03-13T00:53:57.622Z,6.52
2023-03-13T00:54:57.602Z,6.45
2023-03-13T00:55:57.616Z,6.57
2023-03-13T00:56:57.579Z,6.46
2023-03-13T00:57:57.596Z,6.53
2023-03-13T00:58:57.561Z,6.49
2023-03-13T00:59:57.555Z,6.52
2023-03-13T01:00:57.535Z,6.56
2023-03-13T01:01:57.568Z,6.53
2023-03-13T01:02:57.696Z,6.57
2023-03-13T01:03:57.513Z,6.61
2023-03-13T01:04:59.801Z,6.55
2023-03-13T01:05:57.492Z,6.57
2023-03-13T01:06:57.475Z,6.64
2023-03-13T01:07:57.492Z,6.55
2023-03-13T01:08:57.482Z,6.60
2023-03-13T01:09:57.451Z,6.53
2023-03-13T01:10:57.435Z,6.63
2023-03-13T01:11:57.451Z,6.67
2023-03-13T01:12:57.441Z,6.64
2023-03-13T01:13:57.411Z,6.55
2023-03-13T01:14:57.393Z,6.63
2023-03-13T01:15:57.481Z,6.50
2023-03-13T01:16:57.365Z,6.65
2023-03-13T01:17:57.380Z,6.63
2023-03-13T01:18:57.355Z,6.70
2023-03-13T01:19:57.340Z,6.60
2023-03-13T01:20:57.324Z,6.65
2023-03-13T01:21:57.318Z,6.55
2023-03-13T01:22:57.303Z,6.63
2023-03-13T01:23:57.332Z,6.73
2023-03-13T01:24:57.284Z,6.65
2023-03-13T01:25:57.276Z,6.67
2023-03-13T01:26:57.265Z,6.78
2023-03-13T01:27:57.380Z,6.68
2023-03-13T01:28:57.261Z,6.67
2023-03-13T01:29:57.238Z,6.67
2023-03-13T01:30:57.274Z,6.63
2023-03-13T01:31:57.214Z,6.67
2023-03-13T01:32:57.290Z,6.67
2023-03-13T01:33:57.236Z,6.67
2023-03-13T01:34:57.199Z,6.71
2023-03-13T01:35:57.198Z,6.71
2023-03-13T01:36:57.153Z,6.78
2023-03-13T01:37:57.164Z,6.65
2023-03-13T01:38:57.142Z,6.65
2023-03-13T01:39:57.149Z,6.73
2023-03-13T01:40:57.107Z,6.74
2023-03-13T01:41:57.144Z,6.65
2023-03-13T01:42:57.092Z,6.63
2023-03-13T01:43:57.124Z,6.78
2023-03-13T01:44:57.063Z,6.73
2023-03-13T01:45:57.100Z,6.70
2023-03-13T01:46:57.045Z,6.78
2023-03-13T01:47:57.031Z,6.75
2023-03-13T01:48:57.051Z,6.73
2023-03-13T01:49:57.011Z,6.78
2023-03-13T01:50:57.032Z,6.81
2023-03-13T01:51:57.041Z,6.81
2023-03-13T01:52:57.035Z,6.74
2023-03-13T01:53:56.990Z,6.81
2023-03-13T01:54:56.980Z,6.83
2023-03-13T01:55:56.945Z,6.75
2023-03-13T01:56:56.948Z,6.79
2023-03-13T01:57:56.941Z,6.82
2023-03-13T01:58:56.941Z,6.83
2023-03-13T01:59:56.926Z,6.86
2023-03-13T02:00:56.887Z,6.83
2023-03-13T02:01:57.002Z,6.79
2023-03-13T02:02:56.918Z,6.83
2023-03-13T02:03:56.914Z,6.88
2023-03-13T02:04:56.844Z,6.81
2023-03-13T02:05:56.834Z,6.81
2023-03-13T02:06:56.847Z,6.79
2023-03-13T02:07:56.813Z,6.88
2023-03-13T02:08:56.822Z,6.86
2023-03-13T02:09:56.798Z,6.86
2023-03-13T02:10:56.777Z,6.86
2023-03-13T02:11:56.768Z,6.85
2023-03-13T02:12:56.776Z,6.86
2023-03-13T02:13:56.753Z,6.86
2023-03-13T02:14:56.735Z,6.86
2023-03-13T02:15:56.842Z,6.82
2023-03-13T02:16:56.709Z,6.79
2023-03-13T02:17:56.725Z,6.89
2023-03-13T02:18:56.726Z,6.89
2023-03-13T02:19:56.682Z,6.81
2023-03-13T02:20:56.678Z,6.85
2023-03-13T02:21:56.652Z,6.86
2023-03-13T02:22:56.668Z,6.91
2023-03-13T02:23:56.632Z,6.92
2023-03-13T02:24:56.625Z,6.92
2023-03-13T02:25:56.613Z,6.88
2023-03-13T02:26:56.605Z,6.93
2023-03-13T02:27:56.608Z,6.93
2023-03-13T02:28:56.580Z,6.99
2023-03-13T02:29:56.566Z,6.91
2023-03-13T02:30:56.711Z,6.93
2023-03-13T02:31:56.569Z,6.96
2023-03-13T02:32:56.581Z,6.99
2023-03-13T02:33:56.523Z,6.99
2023-03-13T02:34:56.542Z,6.92
2023-03-13T02:35:56.541Z,6.99
2023-03-13T02:36:56.492Z,6.97
2023-03-13T02:37:56.500Z,6.93
2023-03-13T02:38:56.472Z,7.01
2023-03-13T02:39:56.479Z,7.00
2023-03-13T02:40:56.444Z,7.01
2023-03-13T02:41:56.436Z,6.99
2023-03-13T02:42:56.461Z,6.99
2023-03-13T02:43:56.430Z,7.03
2023-03-13T02:44:56.403Z,7.00
2023-03-13T02:45:56.392Z,7.00
2023-03-13T02:46:56.453Z,7.00
2023-03-13T02:47:56.411Z,7.03
2023-03-13T02:48:56.362Z,7.03
2023-03-13T02:49:56.374Z,7.01
2023-03-13T02:50:56.344Z,6.92
2023-03-13T02:51:56.332Z,6.97
2023-03-13T02:52:56.321Z,6.99
2023-03-13T02:53:56.307Z,7.07
2023-03-13T02:54:56.328Z,7.01
2023-03-13T02:55:56.287Z,7.01
2023-03-13T02:56:56.285Z,7.01
2023-03-13T02:57:56.265Z,7.04
2023-03-13T02:58:56.255Z,7.04
2023-03-13T02:59:56.243Z,7.08
2023-03-13T03:00:56.292Z,7.10
2023-03-13T03:01:56.246Z,6.97
2023-03-13T03:02:56.227Z,7.08
2023-03-13T03:03:56.272Z,7.06
2023-03-13T03:04:56.213Z,7.04
2023-03-13T03:05:56.188Z,7.06
2023-03-13T03:06:56.201Z,7.08
2023-03-13T03:07:56.165Z,7.07
2023-03-13T03:08:56.177Z,7.13
2023-03-13T03:09:56.138Z,7.07
2023-03-13T03:10:56.128Z,7.04
2023-03-13T03:11:56.152Z,7.15
2023-03-13T03:12:56.113Z,7.11
2023-03-13T03:13:56.090Z,7.01
2023-03-13T03:14:56.090Z,7.15
2023-03-13T03:15:56.074Z,7.13
2023-03-13T03:16:56.099Z,7.16
2023-03-13T03:17:56.051Z,7.21
2023-03-13T03:18:56.041Z,7.19
2023-03-13T03:19:56.046Z,7.16
2023-03-13T03:20:56.035Z,7.19
2023-03-13T03:21:56.070Z,7.11
2023-03-13T03:22:55.990Z,7.16
2023-03-13T03:23:55.980Z,7.08
2023-03-13T03:24:55.980Z,7.10
2023-03-13T03:25:55.952Z,7.22
2023-03-13T03:26:55.946Z,7.25
2023-03-13T03:27:55.954Z,7.21
2023-03-13T03:28:55.928Z,7.25
2023-03-13T03:29:55.908Z,7.18
2023-03-13T03:30:55.902Z,7.18
2023-03-13T03:31:55.962Z,7.22
2023-03-13T03:32:55.962Z,7.21
2023-03-13T03:33:55.872Z,7.24
2023-03-13T03:34:55.859Z,7.19
2023-03-13T03:35:55.907Z,7.24
2023-03-13T03:36:55.841Z,7.15
2023-03-13T03:37:55.840Z,7.19
2023-03-13T03:38:55.816Z,7.28
2023-03-13T03:39:55.801Z,7.24
2023-03-13T03:40:55.796Z,7.13
2023-03-13T03:41:55.800Z,7.26
2023-03-13T03:42:55.794Z,7.26
2023-03-13T03:43:55.754Z,7.28
2023-03-13T03:44:55.747Z,7.28
2023-03-13T03:45:55.811Z,7.28
2023-03-13T03:46:55.883Z,7.24
2023-03-13T03:47:55.731Z,7.22
2023-03-13T03:48:55.705Z,7.25
2023-03-13T03:49:55.687Z,7.31
2023-03-13T03:50:55.682Z,7.31
2023-03-13T03:51:55.713Z,7.22
2023-03-13T03:52:55.685Z,7.36
2023-03-13T03:53:55.657Z,7.34
2023-03-13T03:54:55.639Z,7.33
2023-03-13T03:55:55.642Z,7.29
2023-03-13T03:56:55.646Z,7.26
2023-03-13T03:57:55.608Z,7.31
2023-03-13T03:58:55.597Z,7.29
2023-03-13T03:59:55.585Z,7.31
2023-03-13T04:00:55.579Z,7.25
2023-03-13T04:01:55.620Z,7.25
2023-03-13T04:02:55.618Z,7.31
2023-03-13T04:03:55.578Z,7.28
2023-03-13T04:04:55.543Z,7.28
2023-03-13T04:05:55.525Z,7.42
2023-03-13T04:06:55.539Z,7.40
2023-03-13T04:07:55.535Z,7.34
2023-03-13T04:08:55.516Z,7.39
2023-03-13T04:09:55.483Z,7.42
2023-03-13T04:10:55.481Z,7.31
2023-03-13T04:11:55.461Z,7.40
2023-03-13T04:12:55.454Z,7.44
2023-03-13T04:13:55.472Z,7.40
2023-03-13T04:14:55.428Z,7.43
2023-03-13T04:15:55.444Z,7.43
2023-03-13T04:16:55.517Z,7.43
2023-03-13T04:17:55.399Z,7.39
2023-03-13T04:18:55.430Z,7.37
2023-03-13T04:19:55.381Z,7.43
2023-03-13T04:20:55.366Z,7.50
2023-03-13T04:21:55.355Z,7.40
2023-03-13T04:22:55.376Z,7.46
2023-03-13T04:23:55.359Z,7.44
2023-03-13T04:24:55.321Z,7.40
2023-03-13T04:25:55.313Z,7.55
2023-03-13T04:26:55.300Z,7.47
2023-03-13T04:27:55.312Z,7.46
2023-03-13T04:28:55.277Z,7.46
2023-03-13T04:29:55.266Z,7.49
2023-03-13T04:30:55.329Z,7.52
2023-03-13T04:31:55.250Z,7.47
2023-03-13T04:32:55.286Z,7.50
2023-03-13T04:33:55.232Z,7.49
2023-03-13T04:34:55.289Z,7.50
2023-03-13T04:35:55.325Z,7.39
2023-03-13T04:36:55.192Z,7.52
2023-03-13T04:37:55.201Z,7.50
2023-03-13T04:38:55.176Z,7.50
2023-03-13T04:39:55.214Z,7.50
2023-03-13T04:40:55.174Z,7.49
2023-03-13T04:41:55.134Z,7.57
2023-03-13T04:42:55.136Z,7.42
2023-03-13T04:43:55.118Z,7.49
2023-03-13T04:44:55.110Z,7.55
2023-03-13T04:45:55.280Z,7.52
2023-03-13T04:46:55.092Z,7.52
2023-03-13T04:47:55.071Z,7.52
2023-03-13T04:48:55.075Z,7.52
2023-03-13T04:49:55.064Z,7.52
2023-03-13T04:50:55.070Z,7.55
2023-03-13T04:51:55.029Z,7.58
2023-03-13T04:52:55.021Z,7.52
2023-03-13T04:53:55.007Z,7.61
2023-03-13T04:54:55.012Z,7.52
2023-03-13T04:55:55.036Z,7.61
2023-03-13T04:56:54.983Z,7.68
2023-03-13T04:57:54.966Z,7.55
2023-03-13T04:58:54.961Z,7.58
2023-03-13T04:59:54.949Z,7.64
2023-03-13T05:00:54.938Z,7.62
2023-03-13T05:01:54.945Z,7.68
2023-03-13T05:02:54.911Z,7.62
2023-03-13T05:03:54.903Z,7.60
2023-03-13T05:04:54.942Z,7.61
2023-03-13T05:05:54.888Z,7.64
2023-03-13T05:06:54.894Z,7.61
2023-03-13T05:07:54.879Z,7.68
2023-03-13T05:08:54.857Z,7.60
2023-03-13T05:09:54.840Z,7.64
2023-03-13T05:10:54.829Z,7.64
2023-03-13T05:11:57.102Z,7.66
2023-03-13T05:12:54.823Z,7.66
2023-03-13T05:13:54.794Z,7.64
2023-03-13T05:14:54.800Z,7.64
2023-03-13T05:15:54.874Z,7.68
2023-03-13T05:16:54.760Z,7.64
2023-03-13T05:17:54.992Z,7.66
2023-03-13T05:18:54.744Z,7.64
2023-03-13T05:19:54.762Z,7.62
2023-03-13T05:20:54.718Z,7.64
2023-03-13T05:21:54.704Z,7.68
2023-03-13T05:22:54.702Z,7.71
2023-03-13T05:23:54.687Z,7.62
2023-03-13T05:24:54.701Z,7.64
2023-03-13T05:25:54.659Z,7.66
2023-03-13T05:26:54.664Z,7.69
2023-03-13T05:27:54.765Z,7.64
2023-03-13T05:28:54.640Z,7.66
2023-03-13T05:29:54.648Z,7.71
2023-03-13T05:30:54.616Z,7.57
2023-03-13T05:31:54.607Z,7.69
2023-03-13T05:32:54.745Z,7.71
2023-03-13T05:33:54.577Z,7.73
2023-03-13T05:34:54.577Z,7.77
2023-03-13T05:35:54.666Z,7.68
2023-03-13T05:36:54.546Z,7.74
2023-03-13T05:37:54.536Z,7.66
2023-03-13T05:38:54.528Z,7.62
2023-03-13T05:39:54.514Z,7.62
2023-03-13T05:40:54.521Z,7.69
2023-03-13T05:41:54.488Z,7.74
2023-03-13T05:42:54.490Z,7.66
2023-03-13T05:43:54.515Z,7.68
2023-03-13T05:44:54.477Z,7.69
2023-03-13T05:45:54.470Z,7.71
2023-03-13T05:46:54.520Z,7.69
2023-03-13T05:47:54.423Z,7.69
2023-03-13T05:48:54.420Z,7.69
2023-03-13T05:49:54.406Z,7.76
2023-03-13T05:50:54.448Z,7.74
2023-03-13T05:51:54.383Z,7.68
2023-03-13T05:52:54.373Z,7.71
2023-03-13T05:53:54.359Z,7.77
2023-03-13T05:54:54.359Z,7.74
2023-03-13T05:55:54.355Z,7.78
2023-03-13T05:56:54.359Z,7.77
2023-03-13T05:57:54.313Z,7.73
2023-03-13T05:58:54.342Z,7.83
2023-03-13T05:59:54.340Z,7.78
2023-03-13T06:00:54.286Z,7.76
2023-03-13T06:01:54.285Z,7.77
2023-03-13T06:02:54.263Z,7.86
2023-03-13T06:03:54.413Z,7.78
2023-03-13T06:04:54.459Z,7.84
2023-03-13T06:05:54.235Z,7.81
2023-03-13T06:06:54.220Z,7.81
2023-03-13T06:07:54.209Z,7.76
2023-03-13T06:08:54.221Z,7.76
2023-03-13T06:09:54.187Z,7.83
2023-03-13T06:10:54.178Z,7.81
2023-03-13T06:11:54.164Z,7.73
2023-03-13T06:12:54.152Z,7.88
2023-03-13T06:13:54.164Z,7.80
2023-03-13T06:14:54.130Z,7.92
2023-03-13T06:15:54.228Z,7.76
2023-03-13T06:16:54.125Z,7.87
2023-03-13T06:17:54.099Z,7.78
2023-03-13T06:18:54.156Z,7.91
2023-03-13T06:19:54.080Z,7.91
2023-03-13T06:20:54.060Z,7.78
2023-03-13T06:21:54.049Z,7.86
2023-03-13T06:22:54.047Z,7.91
2023-03-13T06:23:54.032Z,7.87
2023-03-13T06:24:54.059Z,7.95
2023-03-13T06:25:54.010Z,7.86
2023-03-13T06:26:54.012Z,7.88
2023-03-13T06:27:53.983Z,7.98
2023-03-13T06:28:53.995Z,7.86
2023-03-13T06:29:54.009Z,7.92
2023-03-13T06:30:53.957Z,7.88
2023-03-13T06:31:54.132Z,7.91
2023-03-13T06:32:54.062Z,7.86
2023-03-13T06:33:53.931Z,7.84
2023-03-13T06:34:53.944Z,7.94
2023-03-13T06:35:56.911Z,7.87
2023-03-13T06:36:53.895Z,7.94
2023-03-13T06:37:53.893Z,7.86
2023-03-13T06:38:53.892Z,7.86
2023-03-13T06:39:53.888Z,7.94
2023-03-13T06:40:53.855Z,7.98
2023-03-13T06:41:53.858Z,7.99
2023-03-13T06:42:53.825Z,7.96
2023-03-13T06:43:53.827Z,8.02
2023-03-13T06:44:53.830Z,8.01
2023-03-13T06:45:53.792Z,7.94
2023-03-13T06:46:53.851Z,7.99
2023-03-13T06:47:53.798Z,7.88
2023-03-13T06:48:53.768Z,7.96
2023-03-13T06:49:53.790Z,7.96
2023-03-13T06:50:53.746Z,7.94
2023-03-13T06:51:53.744Z,7.95
2023-03-13T06:52:53.723Z,7.98
2023-03-13T06:53:53.712Z,8.02
2023-03-13T06:54:53.719Z,8.01
2023-03-13T06:55:53.726Z,8.04
2023-03-13T06:56:53.679Z,8.02
2023-03-13T06:57:53.674Z,8.01
2023-03-13T06:58:53.656Z,8.02
2023-03-13T06:59:53.650Z,8.04
2023-03-13T07:00:53.722Z,8.06
2023-03-13T07:01:53.634Z,8.04
2023-03-13T07:02:53.605Z,8.13
2023-03-13T07:03:53.722Z,8.14
2023-03-13T07:04:53.612Z,7.99
2023-03-13T07:05:53.607Z,8.09
2023-03-13T07:06:53.575Z,8.13
2023-03-13T07:07:53.581Z,8.12
2023-03-13T07:08:53.545Z,8.14
2023-03-13T07:09:53.545Z,8.14
2023-03-13T07:10:53.546Z,8.17
2023-03-13T07:11:53.544Z,8.13
2023-03-13T07:12:53.544Z,8.12
2023-03-13T07:13:55.060Z,8.13
2023-03-13T07:14:53.481Z,8.06
2023-03-13T07:15:53.481Z,8.12
2023-03-13T07:16:53.598Z,8.12
2023-03-13T07:17:53.474Z,8.14
2023-03-13T07:18:53.441Z,8.14
2023-03-13T07:19:53.480Z,8.09
2023-03-13T07:20:53.424Z,8.06
2023-03-13T07:21:53.432Z,8.20
2023-03-13T07:22:53.465Z,8.17
2023-03-13T07:23:53.391Z,8.23
2023-03-13T07:24:53.407Z,8.23
2023-03-13T07:25:53.373Z,8.17
2023-03-13T07:27:05.378Z,8.20
2023-03-13T07:27:54.378Z,8.21
2023-03-13T07:28:53.333Z,8.29
2023-03-13T07:29:53.341Z,8.26
2023-03-13T07:30:53.311Z,8.31
2023-03-13T07:31:53.390Z,8.34
2023-03-13T07:32:53.382Z,8.28
2023-03-13T07:33:53.285Z,8.32
2023-03-13T07:34:53.272Z,8.37
2023-03-13T07:35:53.289Z,8.31
2023-03-13T07:36:53.255Z,8.34
2023-03-13T07:37:53.267Z,8.28
2023-03-13T07:38:53.259Z,8.34
2023-03-13T07:39:53.245Z,8.34
2023-03-13T07:40:53.222Z,8.32
2023-03-13T07:41:53.213Z,8.35
2023-03-13T07:42:53.184Z,8.31
2023-03-13T07:43:53.171Z,8.35
2023-03-13T07:44:53.161Z,8.34
2023-03-13T07:45:53.212Z,8.39
2023-03-13T07:46:53.136Z,8.39
2023-03-13T07:47:53.131Z,8.39
2023-03-13T07:48:53.119Z,8.37
2023-03-13T07:49:53.128Z,8.35
2023-03-13T07:50:53.120Z,8.41
2023-03-13T07:51:53.109Z,8.32
2023-03-13T07:52:53.110Z,8.38
2023-03-13T07:53:53.065Z,8.37
2023-03-13T07:54:53.080Z,8.32
2023-03-13T07:55:53.037Z,8.44
2023-03-13T07:56:53.047Z,8.52
2023-03-13T07:57:53.025Z,8.42
2023-03-13T07:58:53.005Z,8.47
2023-03-13T07:59:53.020Z,8.46
2023-03-13T08:00:53.000Z,8.55
2023-03-13T08:01:53.111Z,8.35
2023-03-13T08:02:53.070Z,8.44
2023-03-13T08:03:53.050Z,8.55
2023-03-13T08:04:52.996Z,8.50
2023-03-13T08:05:52.968Z,8.52
2023-03-13T08:06:52.924Z,8.53
2023-03-13T08:07:52.945Z,8.52
2023-03-13T08:08:52.903Z,8.53
2023-03-13T08:09:52.890Z,8.53
2023-03-13T08:10:52.877Z,8.57
2023-03-13T08:11:52.910Z,8.60
2023-03-13T08:12:52.851Z,8.56
2023-03-13T08:13:52.846Z,8.56
2023-03-13T08:14:52.833Z,8.56
2023-03-13T08:15:52.831Z,8.62
2023-03-13T08:16:52.869Z,8.59
2023-03-13T08:17:52.812Z,8.60
2023-03-13T08:18:52.803Z,8.59
2023-03-13T08:19:52.812Z,8.60
2023-03-13T08:20:52.769Z,8.57
2023-03-13T08:21:52.759Z,8.72
2023-03-13T08:22:52.742Z,8.59
2023-03-13T08:23:52.788Z,8.70
2023-03-13T08:24:52.743Z,8.63
2023-03-13T08:25:52.712Z,8.68
2023-03-13T08:26:52.702Z,8.68
2023-03-13T08:27:52.689Z,8.67
2023-03-13T08:28:52.682Z,8.70
2023-03-13T08:29:52.695Z,8.77
2023-03-13T08:30:52.685Z,8.74
2023-03-13T08:31:52.653Z,8.75
2023-03-13T08:32:52.701Z,8.78
2023-03-13T08:33:52.656Z,8.78
2023-03-13T08:34:52.623Z,8.77
2023-03-13T08:35:52.631Z,8.75
2023-03-13T08:36:52.592Z,8.74
2023-03-13T08:37:52.610Z,8.85
2023-03-13T08:38:52.566Z,8.80
2023-03-13T08:39:52.581Z,8.83
2023-03-13T08:40:52.547Z,8.77
2023-03-13T08:41:52.565Z,8.81
2023-03-13T08:42:52.526Z,8.81
2023-03-13T08:43:52.520Z,8.80
2023-03-13T08:44:52.505Z,8.80
2023-03-13T08:45:52.536Z,8.85
2023-03-13T08:46:52.567Z,8.80
2023-03-13T08:47:52.503Z,8.88
2023-03-13T08:48:52.468Z,8.88
2023-03-13T08:49:52.456Z,8.83
2023-03-13T08:50:52.457Z,8.96
2023-03-13T08:51:52.461Z,8.89
2023-03-13T08:52:52.427Z,8.88
2023-03-13T08:53:52.413Z,8.90
2023-03-13T08:54:52.418Z,8.90
2023-03-13T08:55:52.424Z,8.88
2023-03-13T08:56:52.379Z,8.95
2023-03-13T08:57:52.439Z,8.92
2023-03-13T08:58:52.376Z,9.06
2023-03-13T08:59:52.379Z,8.99
2023-03-13T09:00:52.340Z,9.01
2023-03-13T09:01:52.352Z,8.95
2023-03-13T09:02:52.399Z,8.92
2023-03-13T09:03:52.329Z,9.11
2023-03-13T09:04:52.298Z,9.01
2023-03-13T09:05:56.328Z,9.03
2023-03-13T09:06:52.299Z,9.09
2023-03-13T09:07:52.265Z,9.04
2023-03-13T09:08:52.267Z,9.01
2023-03-13T09:09:52.251Z,9.09
2023-03-13T09:10:52.229Z,9.12
2023-03-13T09:11:52.268Z,9.12
2023-03-13T09:12:52.211Z,9.12
2023-03-13T09:13:52.221Z,9.14
2023-03-13T09:14:52.190Z,9.06
2023-03-13T09:15:52.217Z,9.08
2023-03-13T09:16:52.201Z,9.11
2023-03-13T09:17:52.176Z,9.12
2023-03-13T09:18:52.289Z,9.08
2023-03-13T09:20:00.228Z,9.11
2023-03-13T09:20:52.127Z,9.06
2023-03-13T09:21:52.130Z,9.14
2023-03-13T09:22:52.141Z,9.12
2023-03-13T09:23:52.088Z,9.16
2023-03-13T09:24:52.077Z,9.12
2023-03-13T09:25:52.080Z,9.18
2023-03-13T09:27:00.918Z,9.19
2023-03-13T09:27:53.075Z,9.19
2023-03-13T09:28:52.334Z,9.15
2023-03-13T09:29:52.033Z,9.22
2023-03-13T09:30:52.046Z,9.22
2023-03-13T09:31:52.042Z,9.19
2023-03-13T09:32:52.021Z,9.22
2023-03-13T09:33:52.026Z,9.29
2023-03-13T09:34:51.968Z,9.22
2023-03-13T09:35:51.967Z,9.27
2023-03-13T09:36:51.975Z,9.32
2023-03-13T09:37:51.949Z,9.27
2023-03-13T09:38:52.013Z,9.32
2023-03-13T09:39:51.921Z,9.27
2023-03-13T09:41:05.292Z,9.29
2023-03-13T09:41:52.965Z,9.32
2023-03-13T09:42:51.887Z,9.26
2023-03-13T09:43:51.927Z,9.30
2023-03-13T09:44:51.864Z,9.32
2023-03-13T09:45:51.861Z,9.33
2023-03-13T09:46:51.978Z,9.36
2023-03-13T09:47:51.839Z,9.34
2023-03-13T09:48:51.817Z,9.32
2023-03-13T09:49:51.817Z,9.24
2023-03-13T09:50:51.797Z,9.34
2023-03-13T09:51:51.824Z,9.30
2023-03-13T09:52:51.784Z,9.30
2023-03-13T09:53:51.791Z,9.32
2023-03-13T09:54:51.758Z,9.34
2023-03-13T09:55:51.749Z,9.34
2023-03-13T09:56:51.730Z,9.32
2023-03-13T09:57:51.732Z,9.36
2023-03-13T09:58:51.743Z,9.37
2023-03-13T09:59:51.756Z,9.37
2023-03-13T10:00:51.686Z,9.36
2023-03-13T10:01:51.733Z,9.45
2023-03-13T10:02:51.667Z,9.44
2023-03-13T10:03:51.679Z,9.44
2023-03-13T10:04:51.747Z,9.41
2023-03-13T10:05:51.649Z,9.48
2023-03-13T10:06:51.627Z,9.45
2023-03-13T10:07:51.610Z,9.44
2023-03-13T10:08:51.620Z,9.44
2023-03-13T10:09:51.588Z,9.47
2023-03-13T10:10:51.570Z,9.42
2023-03-13T10:11:51.569Z,9.54
2023-03-13T10:12:51.550Z,9.52
2023-03-13T10:13:51.579Z,9.51
2023-03-13T10:14:51.530Z,9.45
2023-03-13T10:15:51.611Z,9.51
2023-03-13T10:16:51.514Z,9.50
2023-03-13T10:17:51.509Z,9.44
2023-03-13T10:18:51.512Z,9.47
2023-03-13T10:19:51.481Z,9.55
2023-03-13T10:20:51.474Z,9.54
2023-03-13T10:21:51.481Z,9.50
2023-03-13T10:22:51.626Z,9.52
2023-03-13T10:23:51.446Z,9.57
2023-03-13T10:24:51.438Z,9.57
2023-03-13T10:25:51.406Z,9.59
2023-03-13T10:26:51.419Z,9.54
2023-03-13T10:27:51.389Z,9.62
2023-03-13T10:28:51.422Z,9.55
2023-03-13T10:29:51.370Z,9.63
2023-03-13T10:30:51.422Z,9.59
2023-03-13T10:31:51.377Z,9.57
2023-03-13T10:32:51.414Z,9.60
2023-03-13T10:33:51.327Z,9.60
2023-03-13T10:34:51.347Z,9.69
2023-03-13T10:35:51.328Z,9.60
2023-03-13T10:36:51.500Z,9.72
2023-03-13T10:37:51.278Z,9.81
2023-03-13T10:38:51.297Z,9.78
2023-03-13T10:39:51.255Z,9.80
2023-03-13T10:40:51.245Z,9.77
2023-03-13T10:41:51.264Z,9.80
2023-03-13T10:42:51.227Z,9.80
2023-03-13T10:43:51.251Z,9.81
2023-03-13T10:44:51.221Z,9.87
2023-03-13T10:45:51.193Z,9.87
2023-03-13T10:46:51.267Z,9.90
2023-03-13T10:47:51.196Z,9.85
2023-03-13T10:48:51.158Z,9.99
2023-03-13T10:49:51.148Z,10.01
2023-03-13T10:50:51.171Z,10.05
2023-03-13T10:51:51.168Z,10.02
2023-03-13T10:52:51.135Z,10.03
2023-03-13T10:53:51.102Z,10.10
2023-03-13T10:54:51.100Z,10.06
2023-03-13T10:55:51.082Z,10.17
2023-03-13T10:56:51.070Z,10.12
2023-03-13T10:57:51.085Z,10.03
2023-03-13T10:58:51.056Z,10.14
2023-03-13T10:59:51.044Z,10.24
2023-03-13T11:00:51.038Z,10.18
2023-03-13T11:01:51.022Z,10.18
2023-03-13T11:02:51.217Z,10.23
2023-03-13T11:03:51.132Z,10.30
2023-03-13T11:04:50.989Z,10.28
2023-03-13T11:05:50.976Z,10.36
2023-03-13T11:06:50.998Z,10.36
2023-03-13T11:07:50.978Z,10.41
2023-03-13T11:08:50.998Z,10.41
2023-03-13T11:09:50.929Z,10.49
2023-03-13T11:10:50.920Z,10.52
2023-03-13T11:11:50.906Z,10.67
2023-03-13T11:12:50.928Z,10.75
2023-03-13T11:13:50.889Z,10.78
2023-03-13T11:14:50.893Z,10.86
2023-03-13T11:15:50.932Z,10.95
2023-03-13T11:16:50.859Z,10.97
2023-03-13T11:17:51.779Z,11.04
2023-03-13T11:18:50.837Z,11.09
2023-03-13T11:19:53.392Z,10.97
2023-03-13T11:20:50.818Z,11.05
2023-03-13T11:21:50.865Z,11.05
2023-03-13T11:22:50.793Z,11.11
2023-03-13T11:23:50.778Z,11.20
2023-03-13T11:24:50.789Z,11.20
2023-03-13T11:25:50.754Z,11.22
2023-03-13T11:27:03.848Z,11.16
2023-03-13T11:27:51.762Z,11.18
2023-03-13T11:28:50.731Z,11.27
2023-03-13T11:29:50.813Z,11.25
2023-03-13T11:30:50.716Z,11.27
2023-03-13T11:31:50.737Z,11.28
2023-03-13T11:32:50.771Z,11.33
2023-03-13T11:33:50.673Z,11.27
2023-03-13T11:34:50.676Z,11.36
2023-03-13T11:35:50.780Z,11.43
2023-03-13T11:36:50.639Z,11.38
2023-03-13T11:37:50.631Z,11.38
2023-03-13T11:38:50.655Z,11.37
2023-03-13T11:39:50.608Z,11.45
2023-03-13T11:40:50.625Z,11.48
2023-03-13T11:41:50.649Z,11.51
2023-03-13T11:42:50.574Z,11.48
2023-03-13T11:43:50.564Z,11.51
2023-03-13T11:44:50.557Z,11.46
2023-03-13T11:45:50.645Z,11.48
2023-03-13T11:46:50.585Z,11.56
2023-03-13T11:47:50.517Z,11.56
2023-03-13T11:48:50.512Z,11.55
2023-03-13T11:49:50.507Z,11.56
2023-03-13T11:50:50.489Z,11.58
2023-03-13T11:51:50.529Z,11.58
2023-03-13T11:52:50.536Z,11.55
2023-03-13T11:53:50.456Z,11.56
2023-03-13T11:54:50.449Z,11.55
2023-03-13T11:55:50.436Z,11.64
2023-03-13T11:56:50.444Z,11.64
2023-03-13T11:57:50.419Z,11.62
2023-03-13T11:58:50.400Z,11.66
2023-03-13T11:59:50.385Z,11.61
2023-03-13T12:00:50.398Z,11.74
2023-03-13T12:01:50.426Z,11.69
2023-03-13T12:02:50.361Z,11.74
2023-03-13T12:03:50.445Z,11.70
2023-03-13T12:04:50.366Z,11.85
2023-03-13T12:05:50.322Z,11.84
2023-03-13T12:06:50.318Z,11.77
2023-03-13T12:07:50.318Z,11.82
2023-03-13T12:08:50.311Z,11.82
2023-03-13T12:09:50.275Z,11.82
2023-03-13T12:10:50.272Z,11.89
2023-03-13T12:11:52.810Z,11.96
2023-03-13T12:12:50.249Z,11.95
2023-03-13T12:13:50.253Z,11.84
2023-03-13T12:14:50.226Z,11.95
2023-03-13T12:15:50.213Z,12.07
2023-03-13T12:16:50.290Z,11.99
2023-03-13T12:17:50.289Z,12.00
2023-03-13T12:18:50.200Z,12.14
2023-03-13T12:19:50.184Z,12.13
2023-03-13T12:20:50.233Z,12.18
2023-03-13T12:21:50.173Z,12.13
2023-03-13T12:22:50.142Z,12.26
2023-03-13T12:23:50.239Z,12.15
2023-03-13T12:24:50.111Z,12.17
2023-03-13T12:25:50.176Z,12.28
2023-03-13T12:26:50.098Z,12.22
2023-03-13T12:27:50.170Z,12.26
2023-03-13T12:28:50.104Z,12.29
2023-03-13T12:29:50.061Z,12.35
2023-03-13T12:30:50.084Z,12.36
2023-03-13T12:31:50.038Z,12.33
2023-03-13T12:32:50.231Z,12.29
2023-03-13T12:33:50.026Z,12.33
2023-03-13T12:34:50.041Z,12.38
2023-03-13T12:35:50.021Z,12.38
2023-03-13T12:36:49.995Z,12.41
2023-03-13T12:37:49.970Z,12.47
2023-03-13T12:38:49.973Z,12.44
2023-03-13T12:39:50.061Z,12.46
2023-03-13T12:40:49.944Z,12.51
2023-03-13T12:41:49.930Z,12.55
2023-03-13T12:42:49.926Z,12.55
2023-03-13T12:44:04.266Z,12.55
2023-03-13T12:44:50.931Z,12.55
2023-03-13T12:45:50.014Z,12.54
2023-03-13T12:46:49.964Z,12.62
2023-03-13T12:47:49.881Z,12.63
2023-03-13T12:48:49.863Z,12.62
2023-03-13T12:49:49.845Z,12.77
2023-03-13T12:50:49.838Z,12.87
2023-03-13T12:51:49.845Z,12.96
2023-03-13T12:52:49.823Z,13.01
2023-03-13T12:53:49.845Z,13.02
2023-03-13T12:54:49.793Z,13.02
2023-03-13T12:55:49.827Z,12.99
2023-03-13T12:56:49.794Z,13.14
2023-03-13T12:57:49.793Z,13.26
2023-03-13T12:58:49.760Z,13.40
2023-03-13T12:59:49.734Z,13.51
2023-03-13T13:00:49.750Z,13.53
2023-03-13T13:01:49.794Z,13.55
2023-03-13T13:02:49.706Z,13.71
2023-03-13T13:03:49.772Z,13.82
2023-03-13T13:04:49.757Z,13.93
2023-03-13T13:05:51.559Z,13.94
2023-03-13T13:06:49.664Z,14.00
2023-03-13T13:07:49.672Z,13.98
2023-03-13T13:08:49.646Z,14.05
2023-03-13T13:09:49.626Z,14.08
2023-03-13T13:10:49.617Z,14.04
2023-03-13T13:11:49.644Z,14.05
2023-03-13T13:12:49.624Z,14.04
2023-03-13T13:13:49.583Z,14.05